sensor_id;sensor_type;location;lat;lon;timestamp;pressure;altitude;pressure_sealevel;temperature;humidity
70982;BME280;58640;51.320;9.456;2023-02-28T00:00:43;100669.09;;;0.06;63.46
70982;BME280;58640;51.320;9.456;2023-02-28T00:03:08;100667.97;;;0.10;63.01
70982;BME280;58640;51.320;9.456;2023-02-28T00:05:34;100671.25;;;0.15;62.48
70982;BME280;58640;51.320;9.456;2023-02-28T00:07:59;100661.59;;;0.14;62.42
70982;BME280;58640;51.320;9.456;2023-02-28T00:10:28;100666.03;;;0.14;62.12
70982;BME280;58640;51.320;9.456;2023-02-28T00:12:55;100660.84;;;-0.05;62.34
70982;BME280;58640;51.320;9.456;2023-02-28T00:15:22;100667.47;;;-0.14;63.23
70982;BME280;58640;51.320;9.456;2023-02-28T00:17:48;100661.59;;;0.14;60.27
70982;BME280;58640;51.320;9.456;2023-02-28T00:20:14;100660.75;;;0.14;60.41
70982;BME280;58640;51.320;9.456;2023-02-28T00:22:42;100667.81;;;0.13;60.33
70982;BME280;58640;51.320;9.456;2023-02-28T00:25:09;100670.09;;;0.03;60.22
70982;BME280;58640;51.320;9.456;2023-02-28T00:27:36;100670.34;;;-0.18;59.88
70982;BME280;58640;51.320;9.456;2023-02-28T00:30:02;100674.44;;;-0.13;60.28
70982;BME280;58640;51.320;9.456;2023-02-28T00:32:28;100669.97;;;-0.28;60.89
70982;BME280;58640;51.320;9.456;2023-02-28T00:34:53;100669.72;;;-0.23;60.49
70982;BME280;58640;51.320;9.456;2023-02-28T00:37:18;100673.16;;;-0.21;60.76
70982;BME280;58640;51.320;9.456;2023-02-28T00:39:44;100668.78;;;-0.22;61.15
70982;BME280;58640;51.320;9.456;2023-02-28T00:42:09;100665.84;;;-0.16;60.99
70982;BME280;58640;51.320;9.456;2023-02-28T00:44:34;100672.91;;;-0.17;60.37
70982;BME280;58640;51.320;9.456;2023-02-28T00:47:00;100666.13;;;-0.22;59.84
70982;BME280;58640;51.320;9.456;2023-02-28T00:49:26;100658.03;;;-0.19;60.20
70982;BME280;58640;51.320;9.456;2023-02-28T00:51:52;100667.88;;;-0.21;60.19
70982;BME280;58640;51.320;9.456;2023-02-28T00:54:18;100665.94;;;-0.18;60.17
70982;BME280;58640;51.320;9.456;2023-02-28T00:56:44;100671.34;;;-0.21;59.30
70982;BME280;58640;51.320;9.456;2023-02-28T00:59:11;100670.44;;;-0.20;59.35
70982;BME280;58640;51.320;9.456;2023-02-28T01:01:36;100664.59;;;-0.26;59.75
70982;BME280;58640;51.320;9.456;2023-02-28T01:04:02;100664.53;;;-0.25;60.07
70982;BME280;58640;51.320;9.456;2023-02-28T01:06:28;100665.38;;;-0.24;60.11
70982;BME280;58640;51.320;9.456;2023-02-28T01:08:53;100663.56;;;-0.24;59.88
70982;BME280;58640;51.320;9.456;2023-02-28T01:11:18;100668.78;;;-0.22;59.48
70982;BME280;58640;51.320;9.456;2023-02-28T01:13:45;100658.22;;;-0.22;59.73
70982;BME280;58640;51.320;9.456;2023-02-28T01:16:12;100669.66;;;-0.22;60.79
70982;BME280;58640;51.320;9.456;2023-02-28T01:18:37;100665.22;;;-0.21;61.07
70982;BME280;58640;51.320;9.456;2023-02-28T01:21:05;100661.56;;;-0.19;60.82
70982;BME280;58640;51.320;9.456;2023-02-28T01:23:30;100662.34;;;-0.17;61.02
70982;BME280;58640;51.320;9.456;2023-02-28T01:25:56;100656.25;;;-0.19;60.67
70982;BME280;58640;51.320;9.456;2023-02-28T01:28:21;100663.56;;;-0.24;60.56
70982;BME280;58640;51.320;9.456;2023-02-28T01:30:50;100663.03;;;-0.30;61.48
70982;BME280;58640;51.320;9.456;2023-02-28T01:33:15;100660.47;;;-0.32;61.57
70982;BME280;58640;51.320;9.456;2023-02-28T01:35:41;100660.53;;;-0.33;61.52
70982;BME280;58640;51.320;9.456;2023-02-28T01:38:06;100656.44;;;-0.39;62.28
70982;BME280;58640;51.320;9.456;2023-02-28T01:40:31;100657.59;;;-0.44;62.13
70982;BME280;58640;51.320;9.456;2023-02-28T01:42:57;100655.19;;;-0.49;61.83
70982;BME280;58640;51.320;9.456;2023-02-28T01:45:27;100653.09;;;-0.42;61.54
70982;BME280;58640;51.320;9.456;2023-02-28T01:48:02;100649.59;;;-0.43;61.21
70982;BME280;58640;51.320;9.456;2023-02-28T01:50:33;100644.53;;;-0.47;61.73
70982;BME280;58640;51.320;9.456;2023-02-28T01:53:02;100649.81;;;-0.47;61.60
70982;BME280;58640;51.320;9.456;2023-02-28T01:55:30;100646.84;;;-0.41;61.83
70982;BME280;58640;51.320;9.456;2023-02-28T01:57:58;100647.88;;;-0.44;61.67
70982;BME280;58640;51.320;9.456;2023-02-28T02:00:26;100645.63;;;-0.51;62.22
70982;BME280;58640;51.320;9.456;2023-02-28T02:02:56;100642.69;;;-0.45;61.63
70982;BME280;58640;51.320;9.456;2023-02-28T02:05:27;100643.59;;;-0.46;62.42
70982;BME280;58640;51.320;9.456;2023-02-28T02:08:08;100641.91;;;-0.47;62.21
70982;BME280;58640;51.320;9.456;2023-02-28T02:10:35;100642.69;;;-0.45;62.23
70982;BME280;58640;51.320;9.456;2023-02-28T02:24:33;100637.84;;;-0.54;62.12
70982;BME280;58640;51.320;9.456;2023-02-28T02:32:41;100635.34;;;-0.57;61.60
70982;BME280;58640;51.320;9.456;2023-02-28T02:35:12;100631.97;;;-0.59;62.25
70982;BME280;58640;51.320;9.456;2023-02-28T02:37:58;100624.94;;;-0.60;62.29
70982;BME280;58640;51.320;9.456;2023-02-28T02:40:30;100631.78;;;-0.56;62.58
70982;BME280;58640;51.320;9.456;2023-02-28T02:42:59;100629.06;;;-0.55;61.81
70982;BME280;58640;51.320;9.456;2023-02-28T02:45:41;100627.06;;;-0.50;62.06
70982;BME280;58640;51.320;9.456;2023-02-28T02:48:09;100627.22;;;-0.53;61.41
70982;BME280;58640;51.320;9.456;2023-02-28T02:50:41;100635.19;;;-0.54;61.22
70982;BME280;58640;51.320;9.456;2023-02-28T02:53:09;100631.47;;;-0.50;62.00
70982;BME280;58640;51.320;9.456;2023-02-28T02:55:39;100633.19;;;-0.49;61.11
70982;BME280;58640;51.320;9.456;2023-02-28T02:58:10;100632.94;;;-0.45;60.95
70982;BME280;58640;51.320;9.456;2023-02-28T03:00:41;100632.09;;;-0.45;60.60
70982;BME280;58640;51.320;9.456;2023-02-28T03:03:09;100631.88;;;-0.41;60.45
70982;BME280;58640;51.320;9.456;2023-02-28T03:05:46;100632.91;;;-0.43;60.90
70982;BME280;58640;51.320;9.456;2023-02-28T03:08:12;100638.09;;;-0.42;61.20
70982;BME280;58640;51.320;9.456;2023-02-28T03:10:43;100636.38;;;-0.43;60.90
70982;BME280;58640;51.320;9.456;2023-02-28T03:13:24;100630.00;;;-0.39;60.33
70982;BME280;58640;51.320;9.456;2023-02-28T03:19:17;100625.28;;;-0.32;60.36
70982;BME280;58640;51.320;9.456;2023-02-28T03:22:01;100627.59;;;-0.26;59.87
70982;BME280;58640;51.320;9.456;2023-02-28T03:24:45;100625.44;;;-0.35;60.05
70982;BME280;58640;51.320;9.456;2023-02-28T03:30:00;100625.56;;;-0.38;60.32
70982;BME280;58640;51.320;9.456;2023-02-28T03:32:33;100626.44;;;-0.38;60.26
70982;BME280;58640;51.320;9.456;2023-02-28T03:35:10;100631.88;;;-0.41;61.22
70982;BME280;58640;51.320;9.456;2023-02-28T03:37:41;100624.72;;;-0.39;60.81
70982;BME280;58640;51.320;9.456;2023-02-28T03:40:17;100629.84;;;-0.36;60.78
70982;BME280;58640;51.320;9.456;2023-02-28T03:42:46;100629.16;;;-0.39;60.00
70982;BME280;58640;51.320;9.456;2023-02-28T03:45:16;100624.09;;;-0.44;60.32
70982;BME280;58640;51.320;9.456;2023-02-28T03:47:54;100630.16;;;-0.25;59.45
70982;BME280;58640;51.320;9.456;2023-02-28T03:50:27;100634.03;;;-0.32;58.68
70982;BME280;58640;51.320;9.456;2023-02-28T03:53:08;100623.63;;;-0.35;58.78
70982;BME280;58640;51.320;9.456;2023-02-28T03:55:40;100627.22;;;-0.36;59.54
70982;BME280;58640;51.320;9.456;2023-02-28T04:01:00;100631.72;;;-0.38;59.62
70982;BME280;58640;51.320;9.456;2023-02-28T04:03:33;100630.75;;;-0.37;59.84
70982;BME280;58640;51.320;9.456;2023-02-28T04:05:59;100630.00;;;-0.39;60.46
70982;BME280;58640;51.320;9.456;2023-02-28T04:08:24;100629.16;;;-0.39;59.92
70982;BME280;58640;51.320;9.456;2023-02-28T04:11:16;100637.16;;;-0.41;59.87
70982;BME280;58640;51.320;9.456;2023-02-28T04:13:43;100636.13;;;-0.38;59.92
70982;BME280;58640;51.320;9.456;2023-02-28T04:16:09;100638.16;;;-0.26;59.21
70982;BME280;58640;51.320;9.456;2023-02-28T04:18:38;100631.88;;;-0.41;59.18
70982;BME280;58640;51.320;9.456;2023-02-28T04:21:05;100637.16;;;-0.41;59.51
70982;BME280;58640;51.320;9.456;2023-02-28T04:23:31;100640.44;;;-0.36;59.34
70982;BME280;58640;51.320;9.456;2023-02-28T04:25:56;100635.59;;;-0.45;59.07
70982;BME280;58640;51.320;9.456;2023-02-28T04:28:21;100642.69;;;-0.45;59.57
70982;BME280;58640;51.320;9.456;2023-02-28T04:30:47;100637.94;;;-0.39;59.11
70982;BME280;58640;51.320;9.456;2023-02-28T04:33:12;100633.81;;;-0.44;59.21
70982;BME280;58640;51.320;9.456;2023-02-28T04:35:37;100642.84;;;-0.48;59.07
70982;BME280;58640;51.320;9.456;2023-02-28T04:38:03;100648.63;;;-0.59;59.89
70982;BME280;58640;51.320;9.456;2023-02-28T04:40:28;100645.38;;;-0.64;59.85
70982;BME280;58640;51.320;9.456;2023-02-28T04:42:53;100644.06;;;-0.72;59.96
70982;BME280;58640;51.320;9.456;2023-02-28T04:45:19;100643.50;;;-0.79;60.17
70982;BME280;58640;51.320;9.456;2023-02-28T04:47:44;100649.78;;;-0.81;59.96
70982;BME280;58640;51.320;9.456;2023-02-28T04:50:10;100643.72;;;-0.83;60.05
70982;BME280;58640;51.320;9.456;2023-02-28T04:52:35;100647.28;;;-0.84;60.18
70982;BME280;58640;51.320;9.456;2023-02-28T04:55:00;100648.88;;;-0.80;59.88
70982;BME280;58640;51.320;9.456;2023-02-28T04:57:26;100635.19;;;-0.88;60.48
70982;BME280;58640;51.320;9.456;2023-02-28T04:59:52;100638.97;;;-0.94;61.15
70982;BME280;58640;51.320;9.456;2023-02-28T05:02:17;100643.56;;;-0.97;61.57
70982;BME280;58640;51.320;9.456;2023-02-28T05:04:42;100645.41;;;-0.99;61.41
70982;BME280;58640;51.320;9.456;2023-02-28T05:07:08;100650.38;;;-0.93;61.22
70982;BME280;58640;51.320;9.456;2023-02-28T05:09:33;100655.75;;;-0.95;60.76
70982;BME280;58640;51.320;9.456;2023-02-28T05:11:58;100650.78;;;-1.01;61.33
70982;BME280;58640;51.320;9.456;2023-02-28T05:14:23;100659.09;;;-0.91;61.55
70982;BME280;58640;51.320;9.456;2023-02-28T05:16:49;100661.19;;;-0.81;61.13
70982;BME280;58640;51.320;9.456;2023-02-28T05:19:14;100664.56;;;-0.77;60.70
70982;BME280;58640;51.320;9.456;2023-02-28T05:21:41;100662.78;;;-0.77;61.07
70982;BME280;58640;51.320;9.456;2023-02-28T05:24:13;100655.63;;;-0.75;60.64
70982;BME280;58640;51.320;9.456;2023-02-28T05:26:42;100651.97;;;-0.72;60.72
70982;BME280;58640;51.320;9.456;2023-02-28T05:29:08;100653.84;;;-0.74;61.27
70982;BME280;58640;51.320;9.456;2023-02-28T05:31:34;100657.13;;;-0.69;60.77
70982;BME280;58640;51.320;9.456;2023-02-28T05:34:00;100657.13;;;-0.69;61.11
70982;BME280;58640;51.320;9.456;2023-02-28T05:36:25;100658.09;;;-0.72;61.27
70982;BME280;58640;51.320;9.456;2023-02-28T05:38:51;100661.38;;;-0.67;60.12
70982;BME280;58640;51.320;9.456;2023-02-28T05:41:18;100668.47;;;-0.50;60.09
70982;BME280;58640;51.320;9.456;2023-02-28T05:43:44;100671.91;;;-0.48;59.77
70982;BME280;58640;51.320;9.456;2023-02-28T05:46:11;100680.59;;;-0.46;59.32
70982;BME280;58640;51.320;9.456;2023-02-28T05:48:37;100678.34;;;-0.37;59.63
70982;BME280;58640;51.320;9.456;2023-02-28T05:51:04;100675.25;;;-0.28;58.93
70982;BME280;58640;51.320;9.456;2023-02-28T05:53:30;100670.88;;;-0.46;59.73
70982;BME280;58640;51.320;9.456;2023-02-28T05:55:56;100672.66;;;-0.46;60.32
70982;BME280;58640;51.320;9.456;2023-02-28T05:58:21;100672.47;;;-0.42;62.38
70982;BME280;58640;51.320;9.456;2023-02-28T06:00:47;100668.16;;;-0.27;61.89
70982;BME280;58640;51.320;9.456;2023-02-28T06:03:13;100677.59;;;-0.39;62.53
70982;BME280;58640;51.320;9.456;2023-02-28T06:05:38;100669.56;;;-0.37;62.68
70982;BME280;58640;51.320;9.456;2023-02-28T06:08:04;100669.56;;;-0.37;63.49
70982;BME280;58640;51.320;9.456;2023-02-28T06:10:32;100665.22;;;-0.21;63.42
70982;BME280;58640;51.320;9.456;2023-02-28T06:13:00;100676.78;;;-0.24;63.65
70982;BME280;58640;51.320;9.456;2023-02-28T06:15:25;100683.63;;;-0.37;65.08
70982;BME280;58640;51.320;9.456;2023-02-28T06:17:50;100678.41;;;-0.38;65.28
70982;BME280;58640;51.320;9.456;2023-02-28T06:20:17;100681.16;;;-0.23;64.97
70982;BME280;58640;51.320;9.456;2023-02-28T06:22:42;100683.69;;;-0.38;65.86
70982;BME280;58640;51.320;9.456;2023-02-28T06:25:09;100689.22;;;-0.43;66.07
70982;BME280;58640;51.320;9.456;2023-02-28T06:27:35;100688.31;;;-0.25;65.58
70982;BME280;58640;51.320;9.456;2023-02-28T06:30:00;100696.56;;;-0.31;66.04
70982;BME280;58640;51.320;9.456;2023-02-28T06:32:26;100699.88;;;-0.27;66.36
70982;BME280;58640;51.320;9.456;2023-02-28T06:34:51;100709.38;;;-0.23;66.32
70982;BME280;58640;51.320;9.456;2023-02-28T06:37:17;100700.22;;;-0.16;65.95
70982;BME280;58640;51.320;9.456;2023-02-28T06:39:43;100701.22;;;-0.19;65.98
70982;BME280;58640;51.320;9.456;2023-02-28T06:42:08;100703.00;;;-0.19;65.95
70982;BME280;58640;51.320;9.456;2023-02-28T06:44:34;100714.34;;;-0.17;66.33
70982;BME280;58640;51.320;9.456;2023-02-28T06:47:04;100711.16;;;-0.24;66.71
70982;BME280;58640;51.320;9.456;2023-02-28T06:49:31;100708.16;;;-0.16;66.61
70982;BME280;58640;51.320;9.456;2023-02-28T06:51:57;100709.00;;;-0.16;66.74
70982;BME280;58640;51.320;9.456;2023-02-28T06:54:22;100709.63;;;-0.11;66.44
70982;BME280;58640;51.320;9.456;2023-02-28T06:56:48;100713.50;;;-0.01;65.58
70982;BME280;58640;51.320;9.456;2023-02-28T06:59:13;100723.53;;;0.10;64.42
70982;BME280;58640;51.320;9.456;2023-02-28T07:01:39;100713.97;;;0.08;64.90
70982;BME280;58640;51.320;9.456;2023-02-28T07:04:05;100711.88;;;0.14;64.74
70982;BME280;58640;51.320;9.456;2023-02-28T07:06:31;100714.50;;;0.14;64.49
70982;BME280;58640;51.320;9.456;2023-02-28T07:08:57;100715.50;;;0.29;64.40
70982;BME280;58640;51.320;9.456;2023-02-28T07:11:25;100717.56;;;0.39;64.57
70982;BME280;58640;51.320;9.456;2023-02-28T07:13:54;100708.75;;;0.56;64.02
70982;BME280;58640;51.320;9.456;2023-02-28T07:16:22;100714.50;;;0.64;62.18
70982;BME280;58640;51.320;9.456;2023-02-28T07:18:48;100710.38;;;0.58;62.83
70982;BME280;58640;51.320;9.456;2023-02-28T07:21:14;100711.22;;;0.59;62.34
70982;BME280;58640;51.320;9.456;2023-02-28T07:23:40;100703.22;;;0.60;62.47
70982;BME280;58640;51.320;9.456;2023-02-28T07:26:10;100710.56;;;0.86;62.12
70982;BME280;58640;51.320;9.456;2023-02-28T07:28:36;100711.03;;;1.10;61.37
70982;BME280;58640;51.320;9.456;2023-02-28T07:31:05;100721.28;;;1.00;58.91
70982;BME280;58640;51.320;9.456;2023-02-28T07:33:31;100713.69;;;1.10;58.85
70982;BME280;58640;51.320;9.456;2023-02-28T07:36:03;100710.41;;;1.36;57.61
70982;BME280;58640;51.320;9.456;2023-02-28T07:38:30;100711.88;;;1.26;57.65
70982;BME280;58640;51.320;9.456;2023-02-28T07:40:55;100717.66;;;1.32;57.52
70982;BME280;58640;51.320;9.456;2023-02-28T07:43:21;100722.34;;;1.59;56.97
70982;BME280;58640;51.320;9.456;2023-02-28T07:45:46;100720.56;;;1.59;56.63
70982;BME280;58640;51.320;9.456;2023-02-28T07:48:11;100717.66;;;1.48;56.33
70982;BME280;58640;51.320;9.456;2023-02-28T07:50:37;100716.25;;;1.57;56.10
70982;BME280;58640;51.320;9.456;2023-02-28T07:53:02;100719.19;;;1.97;54.29
70982;BME280;58640;51.320;9.456;2023-02-28T07:55:28;100718.72;;;2.19;53.09
70982;BME280;58640;51.320;9.456;2023-02-28T07:57:53;100721.25;;;2.36;52.40
70982;BME280;58640;51.320;9.456;2023-02-28T08:00:19;100728.94;;;2.40;52.11
70982;BME280;58640;51.320;9.456;2023-02-28T08:02:44;100718.97;;;2.72;51.71
70982;BME280;58640;51.320;9.456;2023-02-28T08:05:09;100729.78;;;2.69;50.89
70982;BME280;58640;51.320;9.456;2023-02-28T08:07:35;100720.00;;;2.55;50.56
70982;BME280;58640;51.320;9.456;2023-02-28T08:10:00;100720.50;;;2.76;51.19
70982;BME280;58640;51.320;9.456;2023-02-28T08:12:25;100722.59;;;2.57;50.88
70982;BME280;58640;51.320;9.456;2023-02-28T08:14:51;100716.41;;;2.84;50.13
70982;BME280;58640;51.320;9.456;2023-02-28T08:17:16;100717.81;;;3.04;49.53
70982;BME280;58640;51.320;9.456;2023-02-28T08:19:42;100716.00;;;3.45;49.74
70982;BME280;58640;51.320;9.456;2023-02-28T08:22:09;100715.31;;;3.95;47.67
70982;BME280;58640;51.320;9.456;2023-02-28T08:24:35;100724.13;;;3.83;47.02
70982;BME280;58640;51.320;9.456;2023-02-28T08:27:00;100725.59;;;3.74;47.61
70982;BME280;58640;51.320;9.456;2023-02-28T08:29:26;100726.94;;;4.06;46.08
70982;BME280;58640;51.320;9.456;2023-02-28T08:31:51;100723.41;;;3.93;44.76
70982;BME280;58640;51.320;9.456;2023-02-28T08:34:16;100719.53;;;4.24;44.83
70982;BME280;58640;51.320;9.456;2023-02-28T08:36:42;100725.19;;;4.32;44.65
70982;BME280;58640;51.320;9.456;2023-02-28T08:39:11;100726.38;;;3.89;45.53
70982;BME280;58640;51.320;9.456;2023-02-28T08:41:37;100725.28;;;4.30;45.34
70982;BME280;58640;51.320;9.456;2023-02-28T08:44:02;100720.47;;;4.23;44.37
70982;BME280;58640;51.320;9.456;2023-02-28T08:46:28;100724.88;;;3.85;42.27
70982;BME280;58640;51.320;9.456;2023-02-28T08:48:55;100719.91;;;3.66;43.87
70982;BME280;58640;51.320;9.456;2023-02-28T08:51:21;100722.19;;;3.85;42.43
70982;BME280;58640;51.320;9.456;2023-02-28T08:53:55;100724.28;;;4.06;42.18
70982;BME280;58640;51.320;9.456;2023-02-28T08:56:20;100721.53;;;4.20;41.45
70982;BME280;58640;51.320;9.456;2023-02-28T08:58:48;100718.06;;;4.70;41.08
70982;BME280;58640;51.320;9.456;2023-02-28T09:01:18;100717.69;;;5.00;40.32
70982;BME280;58640;51.320;9.456;2023-02-28T09:03:45;100716.22;;;4.45;41.02
70982;BME280;58640;51.320;9.456;2023-02-28T09:06:12;100711.53;;;4.62;40.76
70982;BME280;58640;51.320;9.456;2023-02-28T09:08:39;100721.56;;;4.33;39.72
70982;BME280;58640;51.320;9.456;2023-02-28T09:11:05;100719.31;;;4.77;39.20
70982;BME280;58640;51.320;9.456;2023-02-28T09:13:31;100714.97;;;4.64;39.13
70982;BME280;58640;51.320;9.456;2023-02-28T09:15:58;100731.50;;;4.56;39.55
70982;BME280;58640;51.320;9.456;2023-02-28T09:18:26;100719.44;;;4.63;40.01
70982;BME280;58640;51.320;9.456;2023-02-28T09:20:52;100728.94;;;4.67;39.05
70982;BME280;58640;51.320;9.456;2023-02-28T09:23:17;100728.28;;;4.64;38.75
70982;BME280;58640;51.320;9.456;2023-02-28T09:25:51;100724.13;;;4.85;38.96
70982;BME280;58640;51.320;9.456;2023-02-28T09:28:18;100725.41;;;4.67;39.04
70982;BME280;58640;51.320;9.456;2023-02-28T09:30:45;100727.94;;;3.79;40.56
70982;BME280;58640;51.320;9.456;2023-02-28T09:33:10;100730.09;;;4.38;40.64
70982;BME280;58640;51.320;9.456;2023-02-28T09:35:36;100730.06;;;4.76;39.86
70982;BME280;58640;51.320;9.456;2023-02-28T09:38:03;100724.25;;;5.19;38.50
70982;BME280;58640;51.320;9.456;2023-02-28T09:40:28;100724.31;;;4.44;40.18
70982;BME280;58640;51.320;9.456;2023-02-28T09:42:55;100724.59;;;4.02;40.87
70982;BME280;58640;51.320;9.456;2023-02-28T09:45:27;100721.72;;;3.39;41.37
70982;BME280;58640;51.320;9.456;2023-02-28T09:47:56;100720.34;;;3.20;42.23
70982;BME280;58640;51.320;9.456;2023-02-28T09:52:53;100709.41;;;2.83;42.95
70982;BME280;58640;51.320;9.456;2023-02-28T09:55:30;100719.28;;;2.53;43.89
70982;BME280;58640;51.320;9.456;2023-02-28T09:57:57;100713.03;;;3.23;42.33
70982;BME280;58640;51.320;9.456;2023-02-28T10:00:32;100712.81;;;3.67;41.75
70982;BME280;58640;51.320;9.456;2023-02-28T10:03:36;100717.06;;;3.69;40.90
70982;BME280;58640;51.320;9.456;2023-02-28T10:06:26;100716.56;;;4.41;39.60
70982;BME280;58640;51.320;9.456;2023-02-28T10:09:21;100712.63;;;4.59;39.04
70982;BME280;58640;51.320;9.456;2023-02-28T10:11:51;100716.25;;;5.19;38.79
70982;BME280;58640;51.320;9.456;2023-02-28T10:14:23;100720.09;;;5.75;37.28
70982;BME280;58640;51.320;9.456;2023-02-28T10:17:09;100719.88;;;5.78;37.04
70982;BME280;58640;51.320;9.456;2023-02-28T10:22:14;100722.25;;;5.46;37.36
70982;BME280;58640;51.320;9.456;2023-02-28T10:24:45;100714.41;;;4.71;38.68
70982;BME280;58640;51.320;9.456;2023-02-28T10:27:20;100715.16;;;5.22;39.49
70982;BME280;58640;51.320;9.456;2023-02-28T10:29:48;100721.75;;;4.68;39.09
70982;BME280;58640;51.320;9.456;2023-02-28T10:32:20;100724.41;;;3.78;40.83
70982;BME280;58640;51.320;9.456;2023-02-28T10:34:52;100721.16;;;3.87;40.92
70982;BME280;58640;51.320;9.456;2023-02-28T10:37:20;100732.00;;;3.58;41.29
70982;BME280;58640;51.320;9.456;2023-02-28T10:39:46;100728.00;;;3.24;42.09
70982;BME280;58640;51.320;9.456;2023-02-28T10:45:11;100715.09;;;2.91;42.28
70982;BME280;58640;51.320;9.456;2023-02-28T10:47:58;100720.75;;;3.40;41.34
70982;BME280;58640;51.320;9.456;2023-02-28T11:03:53;100687.19;;;3.52;41.90
70982;BME280;58640;51.320;9.456;2023-02-28T11:06:25;100696.78;;;3.93;41.53
70982;BME280;58640;51.320;9.456;2023-02-28T11:08:56;100686.88;;;3.83;41.12
70982;BME280;58640;51.320;9.456;2023-02-28T11:11:25;100696.53;;;3.71;41.01
70982;BME280;58640;51.320;9.456;2023-02-28T11:13:54;100687.34;;;3.63;41.19
70982;BME280;58640;51.320;9.456;2023-02-28T11:16:20;100691.28;;;3.57;41.71
70982;BME280;58640;51.320;9.456;2023-02-28T11:18:51;100679.13;;;3.92;41.32
70982;BME280;58640;51.320;9.456;2023-02-28T11:21:25;100672.19;;;3.90;41.02
70982;BME280;58640;51.320;9.456;2023-02-28T11:23:54;100684.03;;;3.59;41.09
70982;BME280;58640;51.320;9.456;2023-02-28T11:26:43;100680.22;;;3.63;41.28
70982;BME280;58640;51.320;9.456;2023-02-28T11:29:12;100685.84;;;3.59;41.26
70982;BME280;58640;51.320;9.456;2023-02-28T11:31:41;100681.38;;;3.33;41.51
70982;BME280;58640;51.320;9.456;2023-02-28T11:34:26;100678.50;;;3.36;42.13
70982;BME280;58640;51.320;9.456;2023-02-28T11:36:56;100667.81;;;3.50;42.07
70982;BME280;58640;51.320;9.456;2023-02-28T11:39:22;100676.56;;;3.52;41.49
70982;BME280;58640;51.320;9.456;2023-02-28T11:44:45;100677.47;;;3.38;42.21
70982;BME280;58640;51.320;9.456;2023-02-28T11:52:52;100670.50;;;3.62;42.13
70982;BME280;58640;51.320;9.456;2023-02-28T11:58:02;100665.56;;;3.44;42.14
70982;BME280;58640;51.320;9.456;2023-02-28T12:00:50;100662.97;;;3.30;42.44
70982;BME280;58640;51.320;9.456;2023-02-28T12:03:39;100662.41;;;3.51;42.57
70982;BME280;58640;51.320;9.456;2023-02-28T12:06:14;100667.50;;;3.54;42.01
70982;BME280;58640;51.320;9.456;2023-02-28T12:09:04;100666.59;;;3.29;42.27
70982;BME280;58640;51.320;9.456;2023-02-28T12:11:48;100658.56;;;3.43;42.28
70982;BME280;58640;51.320;9.456;2023-02-28T12:16:46;100657.59;;;3.44;43.08
70982;BME280;58640;51.320;9.456;2023-02-28T12:19:20;100649.44;;;3.59;43.32
70982;BME280;58640;51.320;9.456;2023-02-28T12:27:26;100646.66;;;3.48;42.73
70982;BME280;58640;51.320;9.456;2023-02-28T12:40:28;100633.00;;;3.40;43.63
70982;BME280;58640;51.320;9.456;2023-02-28T12:42:59;100632.63;;;3.46;43.44
70982;BME280;58640;51.320;9.456;2023-02-28T12:45:44;100616.69;;;3.59;43.56
70982;BME280;58640;51.320;9.456;2023-02-28T12:48:16;100623.44;;;3.38;43.93
70982;BME280;58640;51.320;9.456;2023-02-28T12:50:45;100618.25;;;3.49;43.92
70982;BME280;58640;51.320;9.456;2023-02-28T12:56:11;100625.94;;;3.27;44.27
70982;BME280;58640;51.320;9.456;2023-02-28T12:58:48;100625.28;;;3.23;44.28
70982;BME280;58640;51.320;9.456;2023-02-28T13:07:14;100608.13;;;3.41;43.87
70982;BME280;58640;51.320;9.456;2023-02-28T13:09:55;100612.56;;;3.28;43.96
70982;BME280;58640;51.320;9.456;2023-02-28T13:12:21;100611.53;;;3.17;44.36
70982;BME280;58640;51.320;9.456;2023-02-28T13:14:48;100617.16;;;3.12;44.50
70982;BME280;58640;51.320;9.456;2023-02-28T13:17:22;100608.78;;;3.18;45.01
70982;BME280;58640;51.320;9.456;2023-02-28T13:25:01;100604.47;;;3.30;45.06
70982;BME280;58640;51.320;9.456;2023-02-28T13:27:35;100602.16;;;3.38;44.54
70982;BME280;58640;51.320;9.456;2023-02-28T13:33:21;100605.69;;;3.38;44.49
70982;BME280;58640;51.320;9.456;2023-02-28T13:35:48;100596.91;;;3.24;44.74
70982;BME280;58640;51.320;9.456;2023-02-28T13:38:34;100600.84;;;3.31;44.81
70982;BME280;58640;51.320;9.456;2023-02-28T13:44:01;100600.47;;;3.37;44.74
70982;BME280;58640;51.320;9.456;2023-02-28T13:46:27;100595.78;;;3.40;44.89
70982;BME280;58640;51.320;9.456;2023-02-28T13:48:52;100596.84;;;3.38;44.79
70982;BME280;58640;51.320;9.456;2023-02-28T13:51:39;100585.88;;;3.42;44.47
70982;BME280;58640;51.320;9.456;2023-02-28T13:54:45;100582.72;;;3.62;44.65
70982;BME280;58640;51.320;9.456;2023-02-28T14:03:25;100582.56;;;3.39;44.17
70982;BME280;58640;51.320;9.456;2023-02-28T14:08:54;100572.97;;;3.24;44.69
70982;BME280;58640;51.320;9.456;2023-02-28T14:11:26;100573.72;;;3.26;44.48
70982;BME280;58640;51.320;9.456;2023-02-28T14:13:52;100576.44;;;3.38;44.36
70982;BME280;58640;51.320;9.456;2023-02-28T14:16:22;100562.47;;;3.35;44.16
70982;BME280;58640;51.320;9.456;2023-02-28T14:18:56;100562.16;;;3.39;44.25
70982;BME280;58640;51.320;9.456;2023-02-28T14:21:28;100561.41;;;3.37;44.81
70982;BME280;58640;51.320;9.456;2023-02-28T14:23:58;100556.53;;;3.44;44.56
70982;BME280;58640;51.320;9.456;2023-02-28T14:29:46;100559.94;;;3.46;45.44
70982;BME280;58640;51.320;9.456;2023-02-28T14:37:53;100559.84;;;3.47;45.25
70982;BME280;58640;51.320;9.456;2023-02-28T14:40:29;100554.06;;;3.28;45.92
70982;BME280;58640;51.320;9.456;2023-02-28T14:43:04;100554.91;;;3.29;46.56
70982;BME280;58640;51.320;9.456;2023-02-28T14:45:31;100563.97;;;3.39;46.39
70982;BME280;58640;51.320;9.456;2023-02-28T14:47:58;100550.19;;;3.59;45.91
70982;BME280;58640;51.320;9.456;2023-02-28T14:50:29;100566.13;;;3.46;46.23
70982;BME280;58640;51.320;9.456;2023-02-28T14:52:56;100557.47;;;3.30;46.34
70982;BME280;58640;51.320;9.456;2023-02-28T14:55:35;100559.41;;;3.41;46.30
70982;BME280;58640;51.320;9.456;2023-02-28T14:58:03;100555.56;;;3.45;46.28
70982;BME280;58640;51.320;9.456;2023-02-28T15:00:33;100546.22;;;3.39;46.69